X  Schließen METAR Luftfahrt Wetterdaten     LEGR F.G.L. Airport Granada-Jaén Airport
Temperatur
25°C Temperatur
16°C Taupunkt
57% Feuchtigkeit



Wind
2 MPS
3 KM/S
1 M/S
2 KTS



Kein Wind
N
Aktuelle Wetterlage

Klar Klar
Luftdruck 1021 (hPa) - 30.15 (inHg)
Sichtweite 6 (Meile) - 9.7 (Km)
Flughafen
Flughafen Code LEGR

Position : F.G.L. Airport Granada-Jaén Airport
Entfernung: 138 (mi)

Metar:
LEGR 230130Z AUTO VRB02KT CAVOK 25/16 Q1021

Zeit: 23-07-2024 03:30 CEST